SWR138 LSZH-VHHH
Flight info
| Callsign | SWR138 |
|---|---|
| Flight time | N/A |
| Altitude | 29000 |
| Route | DEGES Z2 UMVEG/N0495F310 DCT DIMLO/N0490F330 DCT INVED DCT SOKRU DCT DINRO DCT UDROS DCT ABSAX DCT KARDE DCT REBLO M11 RODAR A909 BABUM/N0484F350 A909 ABDAN A846 RANAH L750 MERUN G452 LKN A201 BIKIK/N0490F370 A201 LSO A599 LINSO/K0907S1130 A599 POU R473 SIERA |
| Aircraft | B77W/H-SDE2E3FGHIJ1J4J5M1P2RWXYZ/LB1D1G1 |
Departure
| Time | 2026-04-25 22:09 |
|---|---|
| Airport | Zürich Airport (LSZH) |
Arrival
| Time | N/A |
|---|---|
| Airport | Hong Kong International Airport (VHHH) |
| Time | Latitude | Longitude | Altitude | Speed | Heading |
|---|---|---|---|---|---|
| 2026-04-25 21:41 | 47.46049 | 8.55528 | 1404 ft | 0 kts | 6° |
| 2026-04-25 21:41 | 47.46048 | 8.55528 | 1404 ft | 0 kts | 6° |
| 2026-04-25 21:57 | 47.46034 | 8.55526 | 1401 ft | 4 kts | 4° |
| 2026-04-25 21:58 | 47.46007 | 8.55524 | 1421 ft | 4 kts | 359° |
| 2026-04-25 21:58 | 47.45980 | 8.55527 | 1411 ft | 4 kts | 347° |
| 2026-04-25 21:58 | 47.45957 | 8.55540 | 1414 ft | 2 kts | 322° |
| 2026-04-25 21:58 | 47.45939 | 8.55557 | 1415 ft | 4 kts | 349° |
| 2026-04-25 21:59 | 47.45912 | 8.55558 | 1414 ft | 4 kts | 6° |
| 2026-04-25 21:59 | 47.45889 | 8.55547 | 1415 ft | 4 kts | 46° |
| 2026-04-25 21:59 | 47.45877 | 8.55515 | 1417 ft | 4 kts | 83° |
| 2026-04-25 22:00 | 47.45880 | 8.55441 | 1406 ft | 2 kts | 96° |
| 2026-04-25 22:00 | 47.45880 | 8.55440 | 1406 ft | 0 kts | 96° |
| 2026-04-25 22:03 | 47.45878 | 8.55463 | 1415 ft | 9 kts | 96° |
| 2026-04-25 22:03 | 47.45868 | 8.55605 | 1415 ft | 15 kts | 96° |
| 2026-04-25 22:03 | 47.45857 | 8.55754 | 1412 ft | 15 kts | 96° |
| 2026-04-25 22:04 | 47.45847 | 8.55903 | 1418 ft | 15 kts | 96° |
| 2026-04-25 22:04 | 47.45836 | 8.56052 | 1416 ft | 15 kts | 96° |
| 2026-04-25 22:04 | 47.45826 | 8.56197 | 1419 ft | 13 kts | 96° |
| 2026-04-25 22:04 | 47.45846 | 8.56291 | 1422 ft | 10 kts | 25° |
| 2026-04-25 22:05 | 47.45919 | 8.56310 | 1422 ft | 12 kts | 6° |
| 2026-04-25 22:05 | 47.45972 | 8.56318 | 1421 ft | 5 kts | 6° |
| 2026-04-25 22:05 | 47.45994 | 8.56321 | 1421 ft | 1 kts | 6° |
| 2026-04-25 22:05 | 47.46003 | 8.56323 | 1421 ft | 2 kts | 6° |
| 2026-04-25 22:06 | 47.46047 | 8.56330 | 1420 ft | 12 kts | 7° |
| 2026-04-25 22:06 | 47.46109 | 8.56397 | 1420 ft | 10 kts | 50° |
| 2026-04-25 22:06 | 47.46147 | 8.56420 | 1420 ft | 6 kts | 332° |
| 2026-04-25 22:06 | 47.46158 | 8.56407 | 1421 ft | 0 kts | 317° |
| 2026-04-25 22:08 | 47.46183 | 8.56372 | 1420 ft | 24 kts | 317° |
| 2026-04-25 22:08 | 47.46508 | 8.55928 | 1411 ft | 101 kts | 317° |
| 2026-04-25 22:08 | 47.47192 | 8.54996 | 1401 ft | 164 kts | 317° |
| 2026-04-25 22:08 | 47.48131 | 8.53718 | 1574 ft | 192 kts | 318° |
| 2026-04-25 22:09 | 47.49123 | 8.52406 | 2214 ft | 193 kts | 322° |
| 2026-04-25 22:09 | 47.50227 | 8.51294 | 2886 ft | 190 kts | 332° |
| 2026-04-25 22:09 | 47.51395 | 8.50327 | 3416 ft | 196 kts | 334° |
| 2026-04-25 22:09 | 47.52538 | 8.49189 | 3854 ft | 201 kts | 316° |
| 2026-04-25 22:10 | 47.53314 | 8.47468 | 4351 ft | 204 kts | 292° |
| 2026-04-25 22:10 | 47.53596 | 8.45374 | 4679 ft | 218 kts | 269° |
| 2026-04-25 22:10 | 47.53283 | 8.43156 | 5096 ft | 223 kts | 246° |
| 2026-04-25 22:10 | 47.52623 | 8.41077 | 5688 ft | 224 kts | 244° |
| 2026-04-25 22:11 | 47.51922 | 8.38993 | 6247 ft | 226 kts | 237° |
| 2026-04-25 22:11 | 47.50778 | 8.37431 | 6729 ft | 229 kts | 203° |
| 2026-04-25 22:11 | 47.49211 | 8.37077 | 7166 ft | 234 kts | 171° |
| 2026-04-25 22:11 | 47.47710 | 8.38019 | 7579 ft | 240 kts | 139° |
| 2026-04-25 22:12 | 47.46656 | 8.39925 | 8036 ft | 242 kts | 121° |
| 2026-04-25 22:12 | 47.45857 | 8.42119 | 8523 ft | 243 kts | 109° |
| 2026-04-25 22:12 | 47.45634 | 8.44607 | 8777 ft | 252 kts | 86° |
| 2026-04-25 22:12 | 47.45685 | 8.46360 | 8885 ft | 264 kts | 88° |
| 2026-04-25 22:13 | 47.45603 | 8.50157 | 9275 ft | 286 kts | 94° |
| 2026-04-25 22:13 | 47.45418 | 8.53131 | 9811 ft | 295 kts | 95° |
| 2026-04-25 22:13 | 47.45218 | 8.56170 | 10413 ft | 301 kts | 94° |
| 2026-04-25 22:13 | 47.45015 | 8.59344 | 10693 ft | 321 kts | 94° |
| 2026-04-25 22:14 | 47.44803 | 8.62758 | 10877 ft | 345 kts | 94° |
| 2026-04-25 22:14 | 47.44581 | 8.66407 | 11067 ft | 369 kts | 94° |
| 2026-04-25 22:14 | 47.44353 | 8.70196 | 11571 ft | 381 kts | 94° |
| 2026-04-25 22:14 | 47.44118 | 8.74136 | 12313 ft | 389 kts | 94° |
| 2026-04-25 22:15 | 47.43879 | 8.78138 | 13239 ft | 393 kts | 94° |
| 2026-04-25 22:15 | 47.43637 | 8.82184 | 14163 ft | 397 kts | 93° |
| 2026-04-25 22:15 | 47.43391 | 8.86274 | 14985 ft | 402 kts | 93° |
| 2026-04-25 22:16 | 47.42888 | 8.94596 | 16603 ft | 412 kts | 93° |
| 2026-04-25 22:16 | 47.42629 | 8.98839 | 17389 ft | 417 kts | 93° |
| 2026-04-25 22:16 | 47.42364 | 9.03133 | 18182 ft | 422 kts | 92° |
| 2026-04-25 22:16 | 47.42097 | 9.07477 | 18893 ft | 427 kts | 92° |
| 2026-04-25 22:17 | 47.41825 | 9.11866 | 19568 ft | 432 kts | 92° |
| 2026-04-25 22:17 | 47.41581 | 9.16324 | 20217 ft | 437 kts | 89° |
| 2026-04-25 22:17 | 47.41638 | 9.20811 | 20873 ft | 439 kts | 82° |
| 2026-04-25 22:17 | 47.42003 | 9.25283 | 21550 ft | 440 kts | 76° |
| 2026-04-25 22:18 | 47.42662 | 9.29704 | 22201 ft | 443 kts | 73° |
| 2026-04-25 22:18 | 47.43369 | 9.34148 | 22818 ft | 448 kts | 73° |
| 2026-04-25 22:18 | 47.44079 | 9.38660 | 23420 ft | 453 kts | 73° |
| 2026-04-25 22:18 | 47.44780 | 9.43218 | 23970 ft | 458 kts | 73° |
| 2026-04-25 22:19 | 47.45477 | 9.47840 | 24517 ft | 462 kts | 73° |
| 2026-04-25 22:19 | 47.46173 | 9.52496 | 25080 ft | 465 kts | 73° |
| 2026-04-25 22:19 | 47.46785 | 9.57212 | 25595 ft | 471 kts | 78° |
| 2026-04-25 22:19 | 47.47072 | 9.62067 | 26067 ft | 478 kts | 84° |
| 2026-04-25 22:20 | 47.47028 | 9.67002 | 26575 ft | 484 kts | 91° |
| 2026-04-25 22:20 | 47.46740 | 9.71973 | 27045 ft | 488 kts | 92° |
| 2026-04-25 22:20 | 47.46423 | 9.76996 | 27503 ft | 492 kts | 92° |
| 2026-04-25 22:20 | 47.46109 | 9.82041 | 27957 ft | 495 kts | 92° |
| 2026-04-25 22:21 | 47.45803 | 9.87125 | 28408 ft | 498 kts | 92° |
| 2026-04-25 22:21 | 47.45506 | 9.92241 | 28844 ft | 501 kts | 92° |
| 2026-04-25 22:21 | 47.45213 | 9.97380 | 29235 ft | 504 kts | 92° |
| 2026-04-25 22:21 | 47.44918 | 10.02559 | 29615 ft | 507 kts | 92° |
| 2026-04-25 22:22 | 47.44620 | 10.07764 | 30031 ft | 509 kts | 92° |
| 2026-04-25 22:22 | 47.44315 | 10.12973 | 30420 ft | 510 kts | 92° |
| 2026-04-25 22:22 | 47.43989 | 10.18194 | 30828 ft | 510 kts | 94° |
| 2026-04-25 22:22 | 47.43417 | 10.23369 | 31267 ft | 510 kts | 99° |
| 2026-04-25 22:23 | 47.42948 | 10.26770 | 31536 ft | 510 kts | 99° |
| 2026-04-25 22:23 | 47.42216 | 10.31897 | 31921 ft | 510 kts | 99° |
| 2026-04-25 22:23 | 47.41494 | 10.36999 | 32304 ft | 510 kts | 99° |
| 2026-04-25 22:23 | 47.40788 | 10.42147 | 32701 ft | 509 kts | 99° |
| 2026-04-25 22:24 | 47.40095 | 10.47263 | 33097 ft | 509 kts | 99° |
| 2026-04-25 22:24 | 47.39396 | 10.52403 | 33288 ft | 511 kts | 99° |
| 2026-04-25 22:24 | 47.38687 | 10.57565 | 33213 ft | 514 kts | 99° |
| 2026-04-25 22:25 | 47.37263 | 10.67807 | 33159 ft | 508 kts | 99° |
| 2026-04-25 22:25 | 47.36550 | 10.72925 | 33337 ft | 510 kts | 99° |
| 2026-04-25 22:25 | 47.35834 | 10.78046 | 33733 ft | 509 kts | 99° |
| 2026-04-25 22:25 | 47.35117 | 10.83145 | 34122 ft | 507 kts | 99° |
| 2026-04-25 22:26 | 47.34403 | 10.88218 | 34526 ft | 505 kts | 100° |
| 2026-04-25 22:26 | 47.33689 | 10.93278 | 34833 ft | 504 kts | 99° |
| 2026-04-25 22:26 | 47.32974 | 10.98330 | 35056 ft | 504 kts | 99° |
| 2026-04-25 22:27 | 47.31529 | 11.08482 | 35140 ft | 507 kts | 100° |
| 2026-04-25 22:27 | 47.30073 | 11.18621 | 35123 ft | 504 kts | 100° |
| 2026-04-25 22:28 | 47.28621 | 11.28696 | 35160 ft | 502 kts | 100° |
| 2026-04-25 22:28 | 47.27163 | 11.38741 | 35155 ft | 501 kts | 100° |
| 2026-04-25 22:29 | 47.25708 | 11.48704 | 35168 ft | 502 kts | 100° |
| 2026-04-25 22:29 | 47.24489 | 11.58832 | 35161 ft | 503 kts | 97° |
| 2026-04-25 22:30 | 47.22895 | 11.74132 | 35142 ft | 505 kts | 97° |
| 2026-04-25 22:30 | 47.21976 | 11.82620 | 35130 ft | 506 kts | 97° |
| 2026-04-25 22:31 | 47.20691 | 11.94550 | 35130 ft | 505 kts | 96° |
| 2026-04-25 22:31 | 47.19697 | 12.04791 | 35121 ft | 506 kts | 96° |
| 2026-04-25 22:32 | 47.18721 | 12.15017 | 35129 ft | 505 kts | 96° |
| 2026-04-25 22:32 | 47.17723 | 12.25232 | 35118 ft | 505 kts | 96° |
| 2026-04-25 22:33 | 47.16707 | 12.35434 | 35127 ft | 504 kts | 96° |
| 2026-04-25 22:33 | 47.15680 | 12.45610 | 35147 ft | 503 kts | 96° |
| 2026-04-25 22:34 | 47.14644 | 12.55785 | 35135 ft | 503 kts | 96° |
| 2026-04-25 22:34 | 47.13601 | 12.65951 | 35135 ft | 503 kts | 96° |
| 2026-04-25 22:35 | 47.12550 | 12.76107 | 35109 ft | 503 kts | 96° |
| 2026-04-25 22:35 | 47.11496 | 12.86184 | 35106 ft | 502 kts | 96° |
| 2026-04-25 22:36 | 47.10430 | 12.96306 | 35115 ft | 502 kts | 96° |
| 2026-04-25 22:36 | 47.09353 | 13.06442 | 35117 ft | 503 kts | 96° |
| 2026-04-25 22:37 | 47.08257 | 13.16647 | 35111 ft | 503 kts | 97° |
| 2026-04-25 22:37 | 47.07162 | 13.26785 | 35102 ft | 504 kts | 97° |
| 2026-04-25 22:38 | 47.06053 | 13.36947 | 35105 ft | 504 kts | 97° |
| 2026-04-25 22:38 | 47.04945 | 13.47028 | 35099 ft | 505 kts | 97° |
| 2026-04-25 22:39 | 47.03811 | 13.57252 | 35090 ft | 505 kts | 97° |
| 2026-04-25 22:39 | 47.02683 | 13.67327 | 35100 ft | 504 kts | 97° |
| 2026-04-25 22:40 | 47.01538 | 13.77481 | 35087 ft | 505 kts | 97° |
| 2026-04-25 22:40 | 47.00384 | 13.87629 | 35085 ft | 505 kts | 97° |
| 2026-04-25 22:41 | 46.99222 | 13.97758 | 35073 ft | 504 kts | 97° |
| 2026-04-25 22:41 | 46.98053 | 14.07875 | 35089 ft | 504 kts | 97° |
| 2026-04-25 22:42 | 46.96875 | 14.17978 | 35075 ft | 503 kts | 97° |
| 2026-04-25 22:42 | 46.95690 | 14.28070 | 35065 ft | 503 kts | 97° |
| 2026-04-25 22:43 | 46.94496 | 14.38149 | 35056 ft | 502 kts | 97° |
| 2026-04-25 22:43 | 46.93298 | 14.48193 | 35082 ft | 502 kts | 97° |
| 2026-04-25 22:44 | 46.92089 | 14.58249 | 35054 ft | 501 kts | 97° |
| 2026-04-25 22:44 | 46.90873 | 14.68292 | 35055 ft | 502 kts | 98° |
| 2026-04-25 22:45 | 46.89648 | 14.78320 | 35053 ft | 501 kts | 98° |
| 2026-04-25 22:45 | 46.88413 | 14.88358 | 35062 ft | 502 kts | 98° |
| 2026-04-25 22:46 | 46.87166 | 14.98415 | 35046 ft | 503 kts | 98° |
| 2026-04-25 22:46 | 46.85921 | 15.08381 | 35038 ft | 503 kts | 98° |
| 2026-04-25 22:47 | 46.84655 | 15.18446 | 35033 ft | 504 kts | 98° |
| 2026-04-25 22:47 | 46.83379 | 15.28514 | 35024 ft | 504 kts | 99° |
| 2026-04-25 22:48 | 46.82095 | 15.38566 | 35023 ft | 503 kts | 99° |
| 2026-04-25 22:48 | 46.80803 | 15.48608 | 35020 ft | 503 kts | 99° |
| 2026-04-25 22:49 | 46.79503 | 15.58639 | 35015 ft | 503 kts | 99° |
| 2026-04-25 22:49 | 46.78196 | 15.68659 | 35021 ft | 503 kts | 99° |
| 2026-04-25 22:50 | 46.76878 | 15.78685 | 35013 ft | 503 kts | 99° |
| 2026-04-25 22:50 | 46.75553 | 15.88696 | 35009 ft | 503 kts | 99° |
| 2026-04-25 22:51 | 46.74218 | 15.98707 | 35004 ft | 503 kts | 99° |
| 2026-04-25 22:51 | 46.72875 | 16.08715 | 35002 ft | 503 kts | 99° |
| 2026-04-25 22:52 | 46.71523 | 16.18719 | 35004 ft | 503 kts | 99° |
| 2026-04-25 22:52 | 46.70392 | 16.27033 | 35003 ft | 503 kts | 100° |
| 2026-04-25 22:53 | 46.68792 | 16.38726 | 35004 ft | 503 kts | 100° |
| 2026-04-25 22:53 | 46.67482 | 16.48747 | 34993 ft | 505 kts | 99° |
| 2026-04-25 22:54 | 46.66345 | 16.58852 | 35002 ft | 507 kts | 98° |
| 2026-04-25 22:54 | 46.65226 | 16.68940 | 35002 ft | 509 kts | 99° |
| 2026-04-25 22:55 | 46.64059 | 16.79117 | 34998 ft | 511 kts | 99° |
| 2026-04-25 22:55 | 46.62864 | 16.89321 | 34988 ft | 513 kts | 99° |
| 2026-04-25 22:56 | 46.61649 | 16.99564 | 35002 ft | 515 kts | 100° |
| 2026-04-25 22:56 | 46.60421 | 17.09846 | 34999 ft | 517 kts | 100° |
| 2026-04-25 22:57 | 46.59181 | 17.20160 | 34995 ft | 518 kts | 100° |
| 2026-04-25 22:57 | 46.57931 | 17.30483 | 34989 ft | 519 kts | 101° |
| 2026-04-25 22:58 | 46.56668 | 17.40830 | 34996 ft | 521 kts | 101° |
| 2026-04-25 22:58 | 46.55392 | 17.51196 | 34995 ft | 522 kts | 101° |
| 2026-04-25 22:59 | 46.54105 | 17.61574 | 34994 ft | 522 kts | 101° |
| 2026-04-25 22:59 | 46.52807 | 17.71961 | 34987 ft | 523 kts | 101° |
| 2026-04-25 23:00 | 46.51498 | 17.82355 | 34992 ft | 524 kts | 101° |
| 2026-04-25 23:00 | 46.50178 | 17.92754 | 34993 ft | 524 kts | 101° |
| 2026-04-25 23:01 | 46.48847 | 18.03160 | 34985 ft | 525 kts | 101° |
| 2026-04-25 23:01 | 46.47505 | 18.13579 | 34988 ft | 525 kts | 101° |
| 2026-04-25 23:02 | 46.46152 | 18.23999 | 34991 ft | 526 kts | 101° |
| 2026-04-25 23:02 | 46.44790 | 18.34417 | 34987 ft | 526 kts | 101° |
| 2026-04-25 23:03 | 46.43426 | 18.44767 | 34986 ft | 526 kts | 101° |
| 2026-04-25 23:03 | 46.42043 | 18.55187 | 34987 ft | 526 kts | 101° |
| 2026-04-25 23:04 | 46.40877 | 18.63913 | 34984 ft | 526 kts | 101° |
| 2026-04-25 23:04 | 46.39248 | 18.76012 | 34982 ft | 526 kts | 102° |
| 2026-04-25 23:05 | 46.37836 | 18.86417 | 34980 ft | 527 kts | 101° |
| 2026-04-25 23:05 | 46.36414 | 18.96825 | 34978 ft | 527 kts | 102° |
| 2026-04-25 23:06 | 46.34983 | 19.07224 | 34977 ft | 527 kts | 102° |
| 2026-04-25 23:06 | 46.33544 | 19.17611 | 34980 ft | 527 kts | 102° |
| 2026-04-25 23:07 | 46.32092 | 19.28007 | 34977 ft | 527 kts | 102° |
| 2026-04-25 23:07 | 46.30632 | 19.38396 | 34978 ft | 528 kts | 102° |
| 2026-04-25 23:08 | 46.29160 | 19.48798 | 34978 ft | 528 kts | 102° |
| 2026-04-25 23:08 | 46.27679 | 19.59192 | 34975 ft | 528 kts | 102° |
| 2026-04-25 23:09 | 46.26188 | 19.69581 | 34978 ft | 528 kts | 102° |
| 2026-04-25 23:09 | 46.24688 | 19.79963 | 34980 ft | 528 kts | 102° |
| 2026-04-25 23:10 | 46.23178 | 19.90340 | 34978 ft | 528 kts | 102° |
| 2026-04-25 23:10 | 46.21670 | 20.00640 | 34977 ft | 528 kts | 102° |
| 2026-04-25 23:11 | 46.20143 | 20.10998 | 34972 ft | 528 kts | 102° |
| 2026-04-25 23:11 | 46.18605 | 20.21359 | 34972 ft | 527 kts | 102° |
| 2026-04-25 23:12 | 46.17062 | 20.31700 | 34981 ft | 527 kts | 102° |
| 2026-04-25 23:12 | 46.15449 | 20.42018 | 34970 ft | 527 kts | 106° |
| 2026-04-25 23:13 | 46.13328 | 20.52136 | 34979 ft | 527 kts | 108° |
| 2026-04-25 23:13 | 46.11511 | 20.60513 | 34979 ft | 527 kts | 108° |
| 2026-04-25 23:14 | 46.09331 | 20.70607 | 34976 ft | 527 kts | 107° |
| 2026-04-25 23:14 | 46.07167 | 20.80694 | 34983 ft | 527 kts | 107° |
| 2026-04-25 23:15 | 46.05000 | 20.90785 | 34981 ft | 528 kts | 107° |